createdAt,value
2019-01-16T00:00:47.720Z,100257.46
2019-01-16T00:05:14.318Z,100254.48
2019-01-16T00:09:49.474Z,100261.77
2019-01-16T00:14:18.630Z,100261.59
2019-01-16T00:19:03.459Z,100248.83
2019-01-16T00:23:26.054Z,100242.57
2019-01-16T00:27:58.036Z,100242.73
2019-01-16T00:32:27.643Z,100239.47
2019-01-16T00:36:59.585Z,100234.68
2019-01-16T00:41:24.369Z,100241.34
2019-01-16T00:46:08.626Z,100240.52
2019-01-16T00:50:23.959Z,100233.57
2019-01-16T00:54:55.737Z,100239.84
2019-01-16T00:59:33.912Z,100232.00
2019-01-16T01:03:53.447Z,100236.10
2019-01-16T01:08:19.275Z,100225.59
2019-01-16T01:12:57.194Z,100225.22
2019-01-16T01:17:30.460Z,100220.08
2019-01-16T01:21:55.020Z,100218.48
2019-01-16T01:26:15.438Z,100221.58
2019-01-16T01:30:45.762Z,100214.19
2019-01-16T01:35:17.815Z,100209.13
2019-01-16T01:39:49.429Z,100207.44
2019-01-16T01:44:24.297Z,100210.92
2019-01-16T01:48:59.209Z,100209.50
2019-01-16T01:53:37.168Z,100212.02
2019-01-16T01:58:03.076Z,100212.50
2019-01-16T02:02:21.372Z,100207.43
2019-01-16T02:06:47.246Z,100198.47
2019-01-16T02:11:13.045Z,100200.23
2019-01-16T02:15:50.223Z,100191.44
2019-01-16T02:20:16.122Z,100186.76
2019-01-16T02:24:42.788Z,100182.35
2019-01-16T02:29:13.446Z,100177.50
2019-01-16T02:33:38.073Z,100180.65
2019-01-16T02:37:58.305Z,100187.68
2019-01-16T02:42:42.215Z,100179.16
2019-01-16T02:47:08.698Z,100176.66
2019-01-16T02:51:49.513Z,100166.55
2019-01-16T02:56:22.846Z,100162.81
2019-01-16T03:00:51.643Z,100155.31
2019-01-16T03:05:22.030Z,100148.84
2019-01-16T03:10:00.447Z,100145.02
2019-01-16T03:14:35.880Z,100144.36
2019-01-16T03:19:04.676Z,100129.48
2019-01-16T03:23:34.359Z,100135.57
2019-01-16T03:27:58.929Z,100132.93
2019-01-16T03:32:23.023Z,100127.30
2019-01-16T03:36:47.457Z,100126.75
2019-01-16T03:41:11.284Z,100112.52
2019-01-16T03:45:45.301Z,100116.06
2019-01-16T03:50:11.159Z,100111.21
2019-01-16T03:54:32.345Z,100107.17
2019-01-16T03:59:11.696Z,100107.28
2019-01-16T04:03:36.257Z,100095.09
2019-01-16T04:08:02.991Z,100087.70
2019-01-16T04:12:36.473Z,100085.33
2019-01-16T04:17:17.728Z,100086.10
2019-01-16T04:21:37.140Z,100076.67
2019-01-16T04:26:03.181Z,100083.38
2019-01-16T04:30:21.503Z,100075.16
2019-01-16T04:34:49.001Z,100074.69
2019-01-16T04:39:21.036Z,100073.73
2019-01-16T04:43:51.392Z,100073.53
2019-01-16T04:48:23.636Z,100058.75
2019-01-16T04:53:07.632Z,100052.20
2019-01-16T04:57:32.786Z,100049.22
2019-01-16T05:02:18.623Z,100046.18
2019-01-16T05:06:47.455Z,100046.08
2019-01-16T05:11:21.183Z,100043.98
2019-01-16T05:15:49.971Z,100040.69
2019-01-16T05:20:21.651Z,100036.39
2019-01-16T05:24:52.627Z,100043.20
2019-01-16T05:29:24.263Z,100041.72
2019-01-16T05:33:48.059Z,100041.36
2019-01-16T05:38:12.003Z,100036.75
2019-01-16T05:42:31.072Z,100035.73
2019-01-16T05:46:56.344Z,100034.73
2019-01-16T05:51:22.177Z,100034.45
2019-01-16T05:55:57.021Z,100038.84
2019-01-16T06:00:47.114Z,100022.75
2019-01-16T06:05:02.506Z,100017.02
2019-01-16T06:09:44.519Z,100011.98
2019-01-16T06:14:16.539Z,100007.45
2019-01-16T06:18:42.572Z,100004.69
2019-01-16T06:23:17.962Z,100000.86
2019-01-16T06:28:04.376Z,100003.55
2019-01-16T06:32:29.287Z,99996.01
2019-01-16T06:37:01.495Z,99991.77
2019-01-16T06:41:33.272Z,99985.31
2019-01-16T06:46:01.806Z,99996.33
2019-01-16T06:50:23.128Z,99994.38
2019-01-16T06:54:50.307Z,99997.57
2019-01-16T06:59:15.946Z,99975.50
2019-01-16T07:03:42.100Z,99981.66
2019-01-16T07:08:23.132Z,99985.48
2019-01-16T07:12:48.726Z,99973.06
2019-01-16T07:17:24.643Z,99976.81
2019-01-16T07:22:05.644Z,99980.67
2019-01-16T07:26:54.000Z,99983.08
2019-01-16T07:31:19.293Z,99986.84
2019-01-16T07:35:52.265Z,99985.37
2019-01-16T07:40:18.607Z,99984.67
2019-01-16T07:44:58.550Z,99968.84
2019-01-16T07:49:33.894Z,99967.36
2019-01-16T07:54:00.622Z,99970.12
2019-01-16T07:58:28.184Z,99968.56
2019-01-16T08:02:59.980Z,99967.39
2019-01-16T08:07:24.769Z,99970.33
2019-01-16T08:11:46.694Z,99973.66
2019-01-16T08:16:12.502Z,99987.29
2019-01-16T08:20:41.581Z,99980.39
2019-01-16T08:25:07.302Z,99990.37
2019-01-16T08:29:32.928Z,99981.17
2019-01-16T08:34:00.845Z,99975.18
2019-01-16T08:38:31.287Z,99983.69
2019-01-16T08:43:00.807Z,99987.92
2019-01-16T08:47:32.812Z,99974.26
2019-01-16T08:51:58.743Z,99975.56
2019-01-16T08:56:27.663Z,99976.59
2019-01-16T09:01:03.734Z,99971.68
2019-01-16T09:05:36.344Z,99965.63
2019-01-16T09:10:01.032Z,99965.45
2019-01-16T09:14:39.921Z,99953.38
2019-01-16T09:19:35.885Z,99955.92
2019-01-16T09:24:31.643Z,99946.75
2019-01-16T09:29:07.016Z,99952.63
2019-01-16T09:33:42.270Z,99950.82
2019-01-16T09:38:37.984Z,99945.33
2019-01-16T09:43:14.096Z,99932.91
2019-01-16T09:47:45.977Z,99920.58
2019-01-16T09:52:33.387Z,99926.63
2019-01-16T09:57:35.844Z,99912.09
2019-01-16T10:02:22.100Z,99915.55
2019-01-16T10:07:12.979Z,99919.13
2019-01-16T10:11:52.467Z,99905.70
2019-01-16T10:16:28.948Z,99907.41
2019-01-16T10:20:58.087Z,99909.98
2019-01-16T10:25:30.633Z,99899.22
2019-01-16T10:30:05.481Z,99901.80
2019-01-16T10:35:15.351Z,99889.26
2019-01-16T10:39:53.962Z,99865.66
2019-01-16T10:44:17.849Z,99863.66
2019-01-16T10:48:55.365Z,99851.53
2019-01-16T10:53:38.901Z,99844.92
2019-01-16T10:58:22.350Z,99829.09
2019-01-16T11:03:21.110Z,99829.01
2019-01-16T11:07:51.415Z,99827.09
2019-01-16T11:12:39.094Z,99816.03
2019-01-16T11:17:29.221Z,99813.64
2019-01-16T11:22:14.236Z,99825.05
2019-01-16T11:26:54.913Z,99807.98
2019-01-16T11:36:29.212Z,99793.19
2019-01-16T11:41:29.301Z,99789.03
2019-01-16T11:46:25.443Z,99764.13
2019-01-16T11:51:49.722Z,99739.50
2019-01-16T11:56:43.039Z,99738.45
2019-01-16T12:01:21.530Z,99739.27
2019-01-16T12:05:50.741Z,99726.90
2019-01-16T12:10:41.756Z,99712.35
2019-01-16T12:15:12.259Z,99708.50
2019-01-16T12:26:15.113Z,99698.67
2019-01-16T12:36:15.491Z,99680.34
2019-01-16T13:04:55.336Z,99633.53
2019-01-16T13:33:07.344Z,99599.56
2019-01-16T13:37:44.863Z,99617.88
2019-01-16T13:38:27.242Z,99584.97
2019-01-16T13:43:03.054Z,99588.98
2019-01-16T13:47:58.236Z,99588.23
2019-01-16T13:52:37.929Z,99579.97
2019-01-16T13:58:02.899Z,99575.46
2019-01-16T14:03:00.392Z,99566.95
2019-01-16T14:08:02.329Z,99555.53
2019-01-16T14:12:41.563Z,99544.06
2019-01-16T14:18:12.667Z,99538.19
2019-01-16T14:22:53.113Z,99532.35
2019-01-16T14:27:54.616Z,99524.84
2019-01-16T14:32:41.908Z,99514.91
2019-01-16T14:37:15.929Z,99508.34
2019-01-16T14:42:01.079Z,99517.28
2019-01-16T14:46:32.259Z,99509.17
2019-01-16T14:51:44.126Z,99498.43
2019-01-16T14:56:27.019Z,99493.89
2019-01-16T15:01:09.278Z,99487.42
2019-01-16T15:06:04.025Z,99476.80
2019-01-16T15:10:37.232Z,99476.33
2019-01-16T15:15:04.644Z,99468.44
2019-01-16T15:19:38.472Z,99448.16
2019-01-16T15:23:54.569Z,99440.73
2019-01-16T15:28:24.931Z,99444.08
2019-01-16T15:33:16.782Z,99433.08
2019-01-16T15:37:50.596Z,99431.88
2019-01-16T15:42:19.910Z,99424.08
2019-01-16T15:47:07.608Z,99423.38
2019-01-16T15:51:43.760Z,99426.17
2019-01-16T15:56:14.996Z,99420.44
2019-01-16T16:00:55.720Z,99414.73
2019-01-16T16:05:49.583Z,99419.71
2019-01-16T16:10:19.187Z,99397.16
2019-01-16T16:14:48.513Z,99396.67
2019-01-16T16:19:42.034Z,99399.53
2019-01-16T16:29:35.378Z,99367.00
2019-01-16T16:34:11.778Z,99376.05
2019-01-16T16:38:44.526Z,99368.39
2019-01-16T16:43:51.095Z,99378.38
2019-01-16T16:48:23.178Z,99371.52
2019-01-16T16:52:59.141Z,99364.70
2019-01-16T16:57:40.340Z,99355.28
2019-01-16T17:02:30.138Z,99348.70
2019-01-16T17:07:56.908Z,99343.13
2019-01-16T17:12:51.634Z,99338.73
2019-01-16T17:17:27.728Z,99337.19
2019-01-16T17:21:59.307Z,99330.52
2019-01-16T17:26:28.915Z,99328.48
2019-01-16T17:31:17.460Z,99329.21
2019-01-16T17:36:01.765Z,99324.09
2019-01-16T17:41:32.683Z,99323.16
2019-01-16T18:02:36.665Z,99305.48
2019-01-16T18:07:22.625Z,99301.09
2019-01-16T18:12:08.548Z,99293.33
2019-01-16T18:26:37.082Z,99276.55
2019-01-16T18:31:19.736Z,99270.75
2019-01-16T18:35:57.938Z,99262.25
2019-01-16T18:40:46.557Z,99253.78
2019-01-16T18:46:06.263Z,99247.86
2019-01-16T18:50:45.398Z,99245.69
2019-01-16T19:00:19.305Z,99235.45
2019-01-16T19:04:49.511Z,99243.91
2019-01-16T19:09:19.257Z,99235.08
2019-01-16T19:13:53.695Z,99224.84
2019-01-16T19:18:29.453Z,99225.67
2019-01-16T19:22:48.730Z,99239.48
2019-01-16T19:27:19.271Z,99233.06
2019-01-16T19:31:48.180Z,99223.30
2019-01-16T19:36:20.894Z,99232.34
2019-01-16T19:40:59.302Z,99215.83
2019-01-16T19:45:26.306Z,99217.13
2019-01-16T19:49:53.559Z,99212.48
2019-01-16T19:54:20.247Z,99211.98
2019-01-16T19:59:01.619Z,99208.65
2019-01-16T20:03:27.592Z,99214.77
2019-01-16T20:07:52.162Z,99212.37
2019-01-16T20:12:16.917Z,99195.22
2019-01-16T20:16:56.448Z,99191.17
2019-01-16T20:21:21.979Z,99182.16
2019-01-16T20:25:46.106Z,99186.80
2019-01-16T20:30:16.682Z,99178.57
2019-01-16T20:35:09.870Z,99187.73
2019-01-16T20:39:40.728Z,99182.50
2019-01-16T20:44:15.536Z,99179.88
2019-01-16T20:48:46.590Z,99179.78
2019-01-16T20:53:07.967Z,99173.58
2019-01-16T20:57:29.719Z,99168.81
2019-01-16T21:01:54.561Z,99168.03
2019-01-16T21:06:40.404Z,99161.09
2019-01-16T21:11:18.376Z,99159.32
2019-01-16T21:15:40.023Z,99165.86
2019-01-16T21:20:24.207Z,99155.42
2019-01-16T21:24:53.590Z,99162.20
2019-01-16T21:29:15.982Z,99157.30
2019-01-16T21:33:48.085Z,99164.18
2019-01-16T21:38:12.846Z,99158.02
2019-01-16T21:42:40.827Z,99156.45
2019-01-16T21:47:10.276Z,99144.55
2019-01-16T21:51:48.857Z,99134.00
2019-01-16T21:56:33.046Z,99133.05
2019-01-16T22:00:58.736Z,99132.44
2019-01-16T22:05:33.378Z,99135.80
2019-01-16T22:10:09.177Z,99132.81
2019-01-16T22:14:44.194Z,99132.47
2019-01-16T22:19:04.388Z,99127.72
2019-01-16T22:23:47.006Z,99124.04
2019-01-16T22:28:02.307Z,99119.27
2019-01-16T22:32:28.031Z,99109.05
2019-01-16T22:36:56.119Z,99106.52
2019-01-16T22:41:31.679Z,99106.18
2019-01-16T22:45:58.957Z,99103.09
2019-01-16T22:50:27.250Z,99106.77
2019-01-16T22:55:11.540Z,99102.37
2019-01-16T22:59:38.980Z,99108.20
2019-01-16T23:04:07.654Z,99104.99
2019-01-16T23:08:26.570Z,99089.36
2019-01-16T23:12:58.579Z,99087.56
2019-01-16T23:17:23.837Z,99090.50
2019-01-16T23:22:09.670Z,99079.78
2019-01-16T23:26:34.876Z,99075.01
2019-01-16T23:30:59.327Z,99059.97
2019-01-16T23:35:32.127Z,99066.27
2019-01-16T23:40:01.783Z,99068.16
2019-01-16T23:44:27.963Z,99064.46
2019-01-16T23:48:53.979Z,99064.91
2019-01-16T23:53:20.277Z,99063.95
2019-01-16T23:57:50.963Z,99053.16
